Flugplatz Braunschweig Wolfsburg

Bericht für EDVE

vom 19.07. um 15:20 UTC

Wind 7 kt aus 260°

Sichtweite 10 km oder mehr

gute Sicht, keine Wolken < 5000 ft, keine CB, keine Wettererscheinungen (CAVOK)

Temperatur 24.0°C

Taupunkt 11.0°C

Luftfeuchtigkeit 44%

Luftdruck 1013 hPa

EDVE 191520Z 26007KT CAVOK 24/11 Q1013

Prognose für EDVE

vom 19.07. um 00:00 UTC

Zwischen 00:00 UTC und 00:00 UTC

Wind 6 kt aus 290°

Sichtweite 10 km oder mehr

keine signifikanten Wettererscheinungen

keine Wolken

TAF EDVE 191400Z 1915/1921 29006KT CAVOK
Impressum